sensor_id;sensor_type;location;lat;lon;timestamp;temperature;humidity
59572;DHT22;59406;45.602;11.904;2023-02-18T00:01:18;8.80;92.70
59572;DHT22;59406;45.602;11.904;2023-02-18T00:03:46;8.80;92.50
59572;DHT22;59406;45.602;11.904;2023-02-18T00:06:24;8.90;92.00
59572;DHT22;59406;45.602;11.904;2023-02-18T00:08:50;8.80;92.60
59572;DHT22;59406;45.602;11.904;2023-02-18T00:11:18;8.90;92.50
59572;DHT22;59406;45.602;11.904;2023-02-18T00:13:56;9.00;91.90
59572;DHT22;59406;45.602;11.904;2023-02-18T00:16:23;9.10;91.80
59572;DHT22;59406;45.602;11.904;2023-02-18T00:18:49;8.90;92.20
59572;DHT22;59406;45.602;11.904;2023-02-18T00:21:15;8.70;92.60
59572;DHT22;59406;45.602;11.904;2023-02-18T00:23:41;8.80;92.60
59572;DHT22;59406;45.602;11.904;2023-02-18T00:26:15;8.90;92.30
59572;DHT22;59406;45.602;11.904;2023-02-18T00:28:42;8.90;92.10
59572;DHT22;59406;45.602;11.904;2023-02-18T00:31:14;8.90;92.40
59572;DHT22;59406;45.602;11.904;2023-02-18T00:33:41;9.00;92.10
59572;DHT22;59406;45.602;11.904;2023-02-18T00:36:10;9.00;91.90
59572;DHT22;59406;45.602;11.904;2023-02-18T00:38:36;9.20;91.30
59572;DHT22;59406;45.602;11.904;2023-02-18T00:41:03;9.10;91.70
59572;DHT22;59406;45.602;11.904;2023-02-18T00:43:29;9.20;91.30
59572;DHT22;59406;45.602;11.904;2023-02-18T00:45:55;9.20;91.20
59572;DHT22;59406;45.602;11.904;2023-02-18T00:48:21;9.30;90.60
59572;DHT22;59406;45.602;11.904;2023-02-18T00:50:47;9.20;91.20
59572;DHT22;59406;45.602;11.904;2023-02-18T00:53:13;9.20;91.20
59572;DHT22;59406;45.602;11.904;2023-02-18T00:55:40;9.30;90.80
59572;DHT22;59406;45.602;11.904;2023-02-18T00:58:05;9.40;90.70
59572;DHT22;59406;45.602;11.904;2023-02-18T01:00:32;9.40;90.30
59572;DHT22;59406;45.602;11.904;2023-02-18T01:02:58;9.30;91.00
59572;DHT22;59406;45.602;11.904;2023-02-18T01:05:24;9.30;90.70
59572;DHT22;59406;45.602;11.904;2023-02-18T01:07:51;9.30;90.60
59572;DHT22;59406;45.602;11.904;2023-02-18T01:10:17;9.30;90.40
59572;DHT22;59406;45.602;11.904;2023-02-18T01:12:42;9.50;90.10
59572;DHT22;59406;45.602;11.904;2023-02-18T01:15:10;9.50;90.10
59572;DHT22;59406;45.602;11.904;2023-02-18T01:17:36;9.40;90.30
59572;DHT22;59406;45.602;11.904;2023-02-18T01:20:02;9.30;90.20
59572;DHT22;59406;45.602;11.904;2023-02-18T01:22:28;9.30;90.20
59572;DHT22;59406;45.602;11.904;2023-02-18T01:24:54;9.30;90.60
59572;DHT22;59406;45.602;11.904;2023-02-18T01:27:20;9.10;91.20
59572;DHT22;59406;45.602;11.904;2023-02-18T01:29:46;9.10;90.60
59572;DHT22;59406;45.602;11.904;2023-02-18T01:32:12;9.10;90.90
59572;DHT22;59406;45.602;11.904;2023-02-18T01:34:38;9.20;90.90
59572;DHT22;59406;45.602;11.904;2023-02-18T01:37:03;9.00;90.80
59572;DHT22;59406;45.602;11.904;2023-02-18T01:39:29;9.10;90.70
59572;DHT22;59406;45.602;11.904;2023-02-18T01:41:55;9.30;90.90
59572;DHT22;59406;45.602;11.904;2023-02-18T01:44:25;9.20;90.80
59572;DHT22;59406;45.602;11.904;2023-02-18T01:46:52;9.20;90.20
59572;DHT22;59406;45.602;11.904;2023-02-18T01:49:31;9.40;90.30
59572;DHT22;59406;45.602;11.904;2023-02-18T01:52:03;9.40;90.50
59572;DHT22;59406;45.602;11.904;2023-02-18T01:54:35;9.30;90.20
59572;DHT22;59406;45.602;11.904;2023-02-18T01:57:08;9.30;90.20
59572;DHT22;59406;45.602;11.904;2023-02-18T01:59:40;9.40;90.40
59572;DHT22;59406;45.602;11.904;2023-02-18T02:02:12;9.20;90.80
59572;DHT22;59406;45.602;11.904;2023-02-18T02:04:38;9.30;90.60
59572;DHT22;59406;45.602;11.904;2023-02-18T02:07:04;9.40;90.70
59572;DHT22;59406;45.602;11.904;2023-02-18T02:09:32;9.40;90.50
59572;DHT22;59406;45.602;11.904;2023-02-18T02:17:30;9.40;90.00
59572;DHT22;59406;45.602;11.904;2023-02-18T02:33:58;9.40;90.00
59572;DHT22;59406;45.602;11.904;2023-02-18T02:47:07;9.40;89.80
59572;DHT22;59406;45.602;11.904;2023-02-18T02:49:38;9.50;89.70
59572;DHT22;59406;45.602;11.904;2023-02-18T02:52:22;9.50;89.60
59572;DHT22;59406;45.602;11.904;2023-02-18T02:54:51;9.50;89.70
59572;DHT22;59406;45.602;11.904;2023-02-18T02:59:47;9.50;89.80
59572;DHT22;59406;45.602;11.904;2023-02-18T03:20:40;9.30;89.60
59572;DHT22;59406;45.602;11.904;2023-02-18T03:23:11;9.30;90.00
59572;DHT22;59406;45.602;11.904;2023-02-18T03:25:39;9.30;89.70
59572;DHT22;59406;45.602;11.904;2023-02-18T03:28:19;9.30;89.80
59572;DHT22;59406;45.602;11.904;2023-02-18T03:30:50;9.30;89.90
59572;DHT22;59406;45.602;11.904;2023-02-18T03:33:22;9.20;90.00
59572;DHT22;59406;45.602;11.904;2023-02-18T03:35:50;9.30;89.80
59572;DHT22;59406;45.602;11.904;2023-02-18T03:38:23;9.40;89.80
59572;DHT22;59406;45.602;11.904;2023-02-18T03:40:51;9.50;89.80
59572;DHT22;59406;45.602;11.904;2023-02-18T03:43:16;9.50;89.70
59572;DHT22;59406;45.602;11.904;2023-02-18T03:45:43;9.50;89.70
59572;DHT22;59406;45.602;11.904;2023-02-18T03:48:09;9.40;89.80
59572;DHT22;59406;45.602;11.904;2023-02-18T03:50:35;9.50;89.60
59572;DHT22;59406;45.602;11.904;2023-02-18T03:53:00;9.40;89.70
59572;DHT22;59406;45.602;11.904;2023-02-18T03:55:26;9.40;89.50
59572;DHT22;59406;45.602;11.904;2023-02-18T03:57:52;9.40;89.40
59572;DHT22;59406;45.602;11.904;2023-02-18T04:00:19;9.50;89.50
59572;DHT22;59406;45.602;11.904;2023-02-18T04:02:45;9.50;89.40
59572;DHT22;59406;45.602;11.904;2023-02-18T04:05:11;9.50;89.10
59572;DHT22;59406;45.602;11.904;2023-02-18T04:07:37;9.50;89.50
59572;DHT22;59406;45.602;11.904;2023-02-18T04:10:04;9.50;89.30
59572;DHT22;59406;45.602;11.904;2023-02-18T04:12:31;9.50;89.30
59572;DHT22;59406;45.602;11.904;2023-02-18T04:14:57;9.50;89.30
59572;DHT22;59406;45.602;11.904;2023-02-18T04:17:23;9.50;89.20
59572;DHT22;59406;45.602;11.904;2023-02-18T04:19:49;9.50;89.20
59572;DHT22;59406;45.602;11.904;2023-02-18T04:22:14;9.60;89.10
59572;DHT22;59406;45.602;11.904;2023-02-18T04:24:40;9.50;89.30
59572;DHT22;59406;45.602;11.904;2023-02-18T04:27:06;9.50;89.40
59572;DHT22;59406;45.602;11.904;2023-02-18T04:29:32;9.30;89.30
59572;DHT22;59406;45.602;11.904;2023-02-18T04:31:58;9.40;89.50
59572;DHT22;59406;45.602;11.904;2023-02-18T04:34:24;9.40;89.70
59572;DHT22;59406;45.602;11.904;2023-02-18T04:36:50;9.30;89.90
59572;DHT22;59406;45.602;11.904;2023-02-18T04:39:16;9.30;89.90
59572;DHT22;59406;45.602;11.904;2023-02-18T04:41:42;9.30;90.00
59572;DHT22;59406;45.602;11.904;2023-02-18T04:44:08;9.10;89.90
59572;DHT22;59406;45.602;11.904;2023-02-18T04:46:34;9.30;90.30
59572;DHT22;59406;45.602;11.904;2023-02-18T04:49:00;9.20;90.20
59572;DHT22;59406;45.602;11.904;2023-02-18T04:51:26;9.30;90.20
59572;DHT22;59406;45.602;11.904;2023-02-18T04:53:52;9.20;90.10
59572;DHT22;59406;45.602;11.904;2023-02-18T04:56:18;9.30;89.90
59572;DHT22;59406;45.602;11.904;2023-02-18T04:58:45;9.30;90.00
59572;DHT22;59406;45.602;11.904;2023-02-18T05:01:11;9.30;89.90
59572;DHT22;59406;45.602;11.904;2023-02-18T05:03:37;9.40;89.90
59572;DHT22;59406;45.602;11.904;2023-02-18T05:06:03;9.40;89.50
59572;DHT22;59406;45.602;11.904;2023-02-18T05:08:29;9.50;89.50
59572;DHT22;59406;45.602;11.904;2023-02-18T05:10:55;9.50;89.60
59572;DHT22;59406;45.602;11.904;2023-02-18T05:13:21;9.50;89.80
59572;DHT22;59406;45.602;11.904;2023-02-18T05:15:48;9.50;89.90
59572;DHT22;59406;45.602;11.904;2023-02-18T05:18:13;9.50;89.80
59572;DHT22;59406;45.602;11.904;2023-02-18T05:20:39;9.60;89.60
59572;DHT22;59406;45.602;11.904;2023-02-18T05:23:05;9.50;89.80
59572;DHT22;59406;45.602;11.904;2023-02-18T05:25:31;9.50;89.60
59572;DHT22;59406;45.602;11.904;2023-02-18T05:27:57;9.60;89.50
59572;DHT22;59406;45.602;11.904;2023-02-18T05:30:23;9.60;89.20
59572;DHT22;59406;45.602;11.904;2023-02-18T05:32:49;9.70;88.90
59572;DHT22;59406;45.602;11.904;2023-02-18T05:35:15;9.70;89.00
59572;DHT22;59406;45.602;11.904;2023-02-18T05:37:41;9.60;89.30
59572;DHT22;59406;45.602;11.904;2023-02-18T05:40:07;9.60;89.40
59572;DHT22;59406;45.602;11.904;2023-02-18T05:42:33;9.60;89.40
59572;DHT22;59406;45.602;11.904;2023-02-18T05:44:59;9.60;89.70
59572;DHT22;59406;45.602;11.904;2023-02-18T05:47:25;9.50;89.60
59572;DHT22;59406;45.602;11.904;2023-02-18T05:49:51;9.50;89.90
59572;DHT22;59406;45.602;11.904;2023-02-18T05:52:17;9.50;89.80
59572;DHT22;59406;45.602;11.904;2023-02-18T05:54:43;9.60;89.80
59572;DHT22;59406;45.602;11.904;2023-02-18T05:57:10;9.60;89.80
59572;DHT22;59406;45.602;11.904;2023-02-18T05:59:37;9.50;89.90
59572;DHT22;59406;45.602;11.904;2023-02-18T06:04:35;9.40;89.90
59572;DHT22;59406;45.602;11.904;2023-02-18T06:07:00;9.50;89.90
59572;DHT22;59406;45.602;11.904;2023-02-18T06:09:26;9.60;90.00
59572;DHT22;59406;45.602;11.904;2023-02-18T06:11:52;9.60;89.90
59572;DHT22;59406;45.602;11.904;2023-02-18T06:14:18;9.70;89.70
59572;DHT22;59406;45.602;11.904;2023-02-18T06:16:44;9.70;89.80
59572;DHT22;59406;45.602;11.904;2023-02-18T06:19:10;9.60;89.80
59572;DHT22;59406;45.602;11.904;2023-02-18T06:21:36;9.70;90.10
59572;DHT22;59406;45.602;11.904;2023-02-18T06:24:02;9.60;90.10
59572;DHT22;59406;45.602;11.904;2023-02-18T06:26:27;9.60;89.90
59572;DHT22;59406;45.602;11.904;2023-02-18T06:28:53;9.70;89.80
59572;DHT22;59406;45.602;11.904;2023-02-18T06:31:19;9.70;89.70
59572;DHT22;59406;45.602;11.904;2023-02-18T06:33:45;9.60;89.60
59572;DHT22;59406;45.602;11.904;2023-02-18T06:36:11;9.70;89.70
59572;DHT22;59406;45.602;11.904;2023-02-18T06:38:40;9.80;89.90
59572;DHT22;59406;45.602;11.904;2023-02-18T06:41:06;9.80;89.70
59572;DHT22;59406;45.602;11.904;2023-02-18T06:43:32;9.80;89.70
59572;DHT22;59406;45.602;11.904;2023-02-18T06:45:58;9.90;89.70
59572;DHT22;59406;45.602;11.904;2023-02-18T06:48:24;9.90;89.60
59572;DHT22;59406;45.602;11.904;2023-02-18T06:50:50;9.90;89.70
59572;DHT22;59406;45.602;11.904;2023-02-18T06:53:16;9.90;89.60
59572;DHT22;59406;45.602;11.904;2023-02-18T06:55:42;9.90;89.40
59572;DHT22;59406;45.602;11.904;2023-02-18T07:00:37;10.00;89.60
59572;DHT22;59406;45.602;11.904;2023-02-18T07:03:04;9.90;89.50
59572;DHT22;59406;45.602;11.904;2023-02-18T07:05:30;10.00;89.60
59572;DHT22;59406;45.602;11.904;2023-02-18T07:07:56;10.00;89.40
59572;DHT22;59406;45.602;11.904;2023-02-18T07:10:22;10.10;89.20
59572;DHT22;59406;45.602;11.904;2023-02-18T07:12:48;10.10;89.20
59572;DHT22;59406;45.602;11.904;2023-02-18T07:15:14;10.30;89.10
59572;DHT22;59406;45.602;11.904;2023-02-18T07:17:40;10.20;89.20
59572;DHT22;59406;45.602;11.904;2023-02-18T07:20:07;10.20;89.30
59572;DHT22;59406;45.602;11.904;2023-02-18T07:22:33;10.20;89.00
59572;DHT22;59406;45.602;11.904;2023-02-18T07:24:59;10.30;89.20
59572;DHT22;59406;45.602;11.904;2023-02-18T07:27:25;10.20;89.10
59572;DHT22;59406;45.602;11.904;2023-02-18T07:29:51;10.10;89.10
59572;DHT22;59406;45.602;11.904;2023-02-18T07:32:18;10.20;89.20
59572;DHT22;59406;45.602;11.904;2023-02-18T07:34:44;10.30;89.20
59572;DHT22;59406;45.602;11.904;2023-02-18T07:37:10;10.30;89.30
59572;DHT22;59406;45.602;11.904;2023-02-18T07:39:40;10.40;88.90
59572;DHT22;59406;45.602;11.904;2023-02-18T07:42:07;10.30;89.10
59572;DHT22;59406;45.602;11.904;2023-02-18T07:44:34;10.30;89.30
59572;DHT22;59406;45.602;11.904;2023-02-18T07:47:00;10.50;89.10
59572;DHT22;59406;45.602;11.904;2023-02-18T07:49:26;10.40;88.90
59572;DHT22;59406;45.602;11.904;2023-02-18T07:51:52;10.50;88.90
59572;DHT22;59406;45.602;11.904;2023-02-18T07:54:18;10.50;89.00
59572;DHT22;59406;45.602;11.904;2023-02-18T07:56:44;10.50;88.80
59572;DHT22;59406;45.602;11.904;2023-02-18T07:59:11;10.50;88.70
59572;DHT22;59406;45.602;11.904;2023-02-18T08:01:38;10.60;88.80
59572;DHT22;59406;45.602;11.904;2023-02-18T08:04:04;10.70;88.60
59572;DHT22;59406;45.602;11.904;2023-02-18T08:06:34;10.70;88.90
59572;DHT22;59406;45.602;11.904;2023-02-18T08:09:00;10.70;88.60
59572;DHT22;59406;45.602;11.904;2023-02-18T08:11:26;10.70;88.60
59572;DHT22;59406;45.602;11.904;2023-02-18T08:13:52;10.60;88.80
59572;DHT22;59406;45.602;11.904;2023-02-18T08:16:20;10.70;89.00
59572;DHT22;59406;45.602;11.904;2023-02-18T08:18:46;10.80;88.80
59572;DHT22;59406;45.602;11.904;2023-02-18T08:21:15;10.80;88.90
59572;DHT22;59406;45.602;11.904;2023-02-18T08:23:42;10.90;88.70
59572;DHT22;59406;45.602;11.904;2023-02-18T08:26:08;11.00;88.30
59572;DHT22;59406;45.602;11.904;2023-02-18T08:28:34;11.00;88.30
59572;DHT22;59406;45.602;11.904;2023-02-18T08:31:00;11.00;88.10
59572;DHT22;59406;45.602;11.904;2023-02-18T08:33:27;11.00;88.20
59572;DHT22;59406;45.602;11.904;2023-02-18T08:35:53;11.00;88.40
59572;DHT22;59406;45.602;11.904;2023-02-18T08:38:20;11.00;88.40
59572;DHT22;59406;45.602;11.904;2023-02-18T08:40:47;11.20;88.20
59572;DHT22;59406;45.602;11.904;2023-02-18T08:43:14;11.20;88.00
59572;DHT22;59406;45.602;11.904;2023-02-18T08:45:41;11.30;88.00
59572;DHT22;59406;45.602;11.904;2023-02-18T08:48:09;11.50;87.70
59572;DHT22;59406;45.602;11.904;2023-02-18T08:50:35;11.50;87.70
59572;DHT22;59406;45.602;11.904;2023-02-18T08:53:02;11.60;87.80
59572;DHT22;59406;45.602;11.904;2023-02-18T08:55:32;11.70;87.70
59572;DHT22;59406;45.602;11.904;2023-02-18T08:57:59;11.80;87.70
59572;DHT22;59406;45.602;11.904;2023-02-18T09:00:25;11.80;87.50
59572;DHT22;59406;45.602;11.904;2023-02-18T09:02:51;11.90;87.30
59572;DHT22;59406;45.602;11.904;2023-02-18T09:05:17;12.00;87.60
59572;DHT22;59406;45.602;11.904;2023-02-18T09:07:43;11.90;87.60
59572;DHT22;59406;45.602;11.904;2023-02-18T09:10:10;11.90;87.50
59572;DHT22;59406;45.602;11.904;2023-02-18T09:12:36;12.00;87.60
59572;DHT22;59406;45.602;11.904;2023-02-18T09:15:02;12.10;87.60
59572;DHT22;59406;45.602;11.904;2023-02-18T09:17:29;12.00;87.70
59572;DHT22;59406;45.602;11.904;2023-02-18T09:19:55;12.00;87.70
59572;DHT22;59406;45.602;11.904;2023-02-18T09:22:21;12.00;87.80
59572;DHT22;59406;45.602;11.904;2023-02-18T09:24:47;12.10;87.60
59572;DHT22;59406;45.602;11.904;2023-02-18T09:27:13;12.10;87.70
59572;DHT22;59406;45.602;11.904;2023-02-18T09:29:40;12.10;87.70
59572;DHT22;59406;45.602;11.904;2023-02-18T09:32:07;12.10;87.60
59572;DHT22;59406;45.602;11.904;2023-02-18T09:34:34;12.40;87.40
59572;DHT22;59406;45.602;11.904;2023-02-18T09:37:00;12.50;86.90
59572;DHT22;59406;45.602;11.904;2023-02-18T09:39:26;12.50;87.00
59572;DHT22;59406;45.602;11.904;2023-02-18T09:41:54;12.40;87.20
59572;DHT22;59406;45.602;11.904;2023-02-18T09:44:28;12.40;87.20
59572;DHT22;59406;45.602;11.904;2023-02-18T09:47:01;12.50;87.20
59572;DHT22;59406;45.602;11.904;2023-02-18T09:49:34;12.50;87.10
59572;DHT22;59406;45.602;11.904;2023-02-18T09:52:22;12.60;87.00
59572;DHT22;59406;45.602;11.904;2023-02-18T09:54:50;12.60;86.80
59572;DHT22;59406;45.602;11.904;2023-02-18T09:57:26;12.70;86.80
59572;DHT22;59406;45.602;11.904;2023-02-18T10:00:00;12.80;85.50
59572;DHT22;59406;45.602;11.904;2023-02-18T10:02:29;12.90;85.30
59572;DHT22;59406;45.602;11.904;2023-02-18T10:04:56;12.80;85.40
59572;DHT22;59406;45.602;11.904;2023-02-18T10:07:28;12.80;85.50
59572;DHT22;59406;45.602;11.904;2023-02-18T10:09:56;12.90;85.30
59572;DHT22;59406;45.602;11.904;2023-02-18T10:12:24;13.10;85.00
59572;DHT22;59406;45.602;11.904;2023-02-18T10:14:55;13.00;85.00
59572;DHT22;59406;45.602;11.904;2023-02-18T10:17:24;13.30;84.60
59572;DHT22;59406;45.602;11.904;2023-02-18T10:19:53;13.40;84.50
59572;DHT22;59406;45.602;11.904;2023-02-18T10:22:21;13.60;84.30
59572;DHT22;59406;45.602;11.904;2023-02-18T10:24:57;13.80;84.00
59572;DHT22;59406;45.602;11.904;2023-02-18T10:27:27;13.70;83.90
59572;DHT22;59406;45.602;11.904;2023-02-18T10:29:56;13.90;83.60
59572;DHT22;59406;45.602;11.904;2023-02-18T10:32:27;13.70;83.50
59572;DHT22;59406;45.602;11.904;2023-02-18T10:42:47;14.50;82.60
59572;DHT22;59406;45.602;11.904;2023-02-18T10:48:19;14.90;81.60
59572;DHT22;59406;45.602;11.904;2023-02-18T10:50:50;14.90;81.80
59572;DHT22;59406;45.602;11.904;2023-02-18T10:53:39;15.00;81.60
59572;DHT22;59406;45.602;11.904;2023-02-18T10:56:08;14.80;81.30
59572;DHT22;59406;45.602;11.904;2023-02-18T10:58:36;14.80;81.70
59572;DHT22;59406;45.602;11.904;2023-02-18T11:01:13;15.10;81.70
59572;DHT22;59406;45.602;11.904;2023-02-18T11:03:44;15.20;81.10
59572;DHT22;59406;45.602;11.904;2023-02-18T11:06:38;15.10;81.30
59572;DHT22;59406;45.602;11.904;2023-02-18T11:09:05;15.10;80.70
59572;DHT22;59406;45.602;11.904;2023-02-18T11:11:36;15.10;81.30
59572;DHT22;59406;45.602;11.904;2023-02-18T11:14:05;15.00;81.40
59572;DHT22;59406;45.602;11.904;2023-02-18T11:16:45;15.20;81.10
59572;DHT22;59406;45.602;11.904;2023-02-18T11:19:34;15.30;80.60
59572;DHT22;59406;45.602;11.904;2023-02-18T11:22:25;15.00;80.80
59572;DHT22;59406;45.602;11.904;2023-02-18T11:24:55;14.80;81.00
59572;DHT22;59406;45.602;11.904;2023-02-18T11:27:45;14.90;81.20
59572;DHT22;59406;45.602;11.904;2023-02-18T11:30:32;15.00;80.90
59572;DHT22;59406;45.602;11.904;2023-02-18T11:33:02;15.20;80.90
59572;DHT22;59406;45.602;11.904;2023-02-18T11:35:31;15.20;80.80
59572;DHT22;59406;45.602;11.904;2023-02-18T11:37:59;15.30;80.70
59572;DHT22;59406;45.602;11.904;2023-02-18T11:40:32;15.70;79.00
59572;DHT22;59406;45.602;11.904;2023-02-18T11:43:11;16.00;78.40
59572;DHT22;59406;45.602;11.904;2023-02-18T11:45:38;16.20;77.80
59572;DHT22;59406;45.602;11.904;2023-02-18T11:48:18;16.00;78.70
59572;DHT22;59406;45.602;11.904;2023-02-18T11:50:51;16.20;78.10
59572;DHT22;59406;45.602;11.904;2023-02-18T11:53:30;16.30;78.40
59572;DHT22;59406;45.602;11.904;2023-02-18T11:55:59;16.10;77.60
59572;DHT22;59406;45.602;11.904;2023-02-18T11:58:26;15.60;78.80
59572;DHT22;59406;45.602;11.904;2023-02-18T12:00:56;15.20;80.10
59572;DHT22;59406;45.602;11.904;2023-02-18T12:03:43;14.90;80.20
59572;DHT22;59406;45.602;11.904;2023-02-18T12:06:16;15.10;80.30
59572;DHT22;59406;45.602;11.904;2023-02-18T12:08:50;15.20;80.50
59572;DHT22;59406;45.602;11.904;2023-02-18T12:11:30;15.50;79.00
59572;DHT22;59406;45.602;11.904;2023-02-18T12:13:58;15.70;78.50
59572;DHT22;59406;45.602;11.904;2023-02-18T12:22:14;16.20;77.50
59572;DHT22;59406;45.602;11.904;2023-02-18T12:24:48;16.20;77.30
59572;DHT22;59406;45.602;11.904;2023-02-18T12:33:01;15.70;77.60
59572;DHT22;59406;45.602;11.904;2023-02-18T12:38:59;15.50;77.30
59572;DHT22;59406;45.602;11.904;2023-02-18T12:44:44;15.90;77.30
59572;DHT22;59406;45.602;11.904;2023-02-18T12:55:47;16.10;77.30
59572;DHT22;59406;45.602;11.904;2023-02-18T13:14:40;16.20;76.70
59572;DHT22;59406;45.602;11.904;2023-02-18T13:17:09;16.30;76.40
59572;DHT22;59406;45.602;11.904;2023-02-18T13:19:46;16.30;76.80
59572;DHT22;59406;45.602;11.904;2023-02-18T13:22:15;16.30;76.30
59572;DHT22;59406;45.602;11.904;2023-02-18T13:24:45;16.20;76.70
59572;DHT22;59406;45.602;11.904;2023-02-18T13:27:32;16.20;76.70
59572;DHT22;59406;45.602;11.904;2023-02-18T13:40:44;16.90;75.20
59572;DHT22;59406;45.602;11.904;2023-02-18T13:46:11;17.00;75.50
59572;DHT22;59406;45.602;11.904;2023-02-18T13:54:31;16.30;76.40
59572;DHT22;59406;45.602;11.904;2023-02-18T13:56:59;16.50;76.10
59572;DHT22;59406;45.602;11.904;2023-02-18T14:02:32;16.50;76.10
59572;DHT22;59406;45.602;11.904;2023-02-18T14:10:25;16.50;76.10
59572;DHT22;59406;45.602;11.904;2023-02-18T14:50:12;15.70;76.80
59572;DHT22;59406;45.602;11.904;2023-02-18T14:52:56;15.70;76.70
59572;DHT22;59406;45.602;11.904;2023-02-18T14:55:34;15.70;76.60
59572;DHT22;59406;45.602;11.904;2023-02-18T14:58:04;15.60;76.70
59572;DHT22;59406;45.602;11.904;2023-02-18T15:00:38;15.70;76.70
59572;DHT22;59406;45.602;11.904;2023-02-18T15:03:14;15.60;77.00
59572;DHT22;59406;45.602;11.904;2023-02-18T15:05:42;15.70;76.70
59572;DHT22;59406;45.602;11.904;2023-02-18T15:08:19;15.80;76.70
59572;DHT22;59406;45.602;11.904;2023-02-18T15:11:01;15.80;76.60
59572;DHT22;59406;45.602;11.904;2023-02-18T15:16:11;15.60;76.70
59572;DHT22;59406;45.602;11.904;2023-02-18T15:18:57;15.60;76.90
59572;DHT22;59406;45.602;11.904;2023-02-18T15:24:06;15.50;76.70
59572;DHT22;59406;45.602;11.904;2023-02-18T15:26:44;15.50;76.60
59572;DHT22;59406;45.602;11.904;2023-02-18T15:29:19;15.50;76.80
59572;DHT22;59406;45.602;11.904;2023-02-18T15:31:47;15.50;76.90
59572;DHT22;59406;45.602;11.904;2023-02-18T15:34:37;15.50;77.00
59572;DHT22;59406;45.602;11.904;2023-02-18T15:37:05;15.30;78.00
59572;DHT22;59406;45.602;11.904;2023-02-18T15:39:33;15.20;78.00
59572;DHT22;59406;45.602;11.904;2023-02-18T15:42:18;15.10;78.30
59572;DHT22;59406;45.602;11.904;2023-02-18T15:44:50;15.10;78.30
59572;DHT22;59406;45.602;11.904;2023-02-18T15:47:18;15.10;78.30
59572;DHT22;59406;45.602;11.904;2023-02-18T15:49:55;15.00;78.40
59572;DHT22;59406;45.602;11.904;2023-02-18T15:52:31;15.00;78.30
59572;DHT22;59406;45.602;11.904;2023-02-18T15:55:26;15.00;78.40
59572;DHT22;59406;45.602;11.904;2023-02-18T15:57:48;14.90;78.40
59572;DHT22;59406;45.602;11.904;2023-02-18T16:00:24;14.90;78.40
59572;DHT22;59406;45.602;11.904;2023-02-18T16:03:11;14.90;78.50
59572;DHT22;59406;45.602;11.904;2023-02-18T16:05:38;14.80;78.50
59572;DHT22;59406;45.602;11.904;2023-02-18T16:08:26;14.80;78.50
59572;DHT22;59406;45.602;11.904;2023-02-18T16:10:55;14.70;78.60
59572;DHT22;59406;45.602;11.904;2023-02-18T16:13:23;14.70;78.80
59572;DHT22;59406;45.602;11.904;2023-02-18T16:15:50;14.60;78.90
59572;DHT22;59406;45.602;11.904;2023-02-18T16:18:26;14.50;79.10
59572;DHT22;59406;45.602;11.904;2023-02-18T16:26:30;14.20;79.60
59572;DHT22;59406;45.602;11.904;2023-02-18T16:29:34;14.10;79.80
59572;DHT22;59406;45.602;11.904;2023-02-18T16:32:00;14.00;80.60
59572;DHT22;59406;45.602;11.904;2023-02-18T16:34:26;13.70;80.90
59572;DHT22;59406;45.602;11.904;2023-02-18T16:36:53;13.60;81.30
59572;DHT22;59406;45.602;11.904;2023-02-18T16:39:37;13.60;81.30
59572;DHT22;59406;45.602;11.904;2023-02-18T16:42:09;13.60;81.30
59572;DHT22;59406;45.602;11.904;2023-02-18T16:44:36;13.60;81.50
59572;DHT22;59406;45.602;11.904;2023-02-18T16:47:02;13.70;81.40
59572;DHT22;59406;45.602;11.904;2023-02-18T16:49:28;13.70;81.30
59572;DHT22;59406;45.602;11.904;2023-02-18T16:51:54;13.60;81.40
59572;DHT22;59406;45.602;11.904;2023-02-18T16:54:21;13.60;81.50
59572;DHT22;59406;45.602;11.904;2023-02-18T16:56:47;13.50;81.60
59572;DHT22;59406;45.602;11.904;2023-02-18T16:59:12;13.50;81.60
59572;DHT22;59406;45.602;11.904;2023-02-18T17:01:41;13.40;81.70
59572;DHT22;59406;45.602;11.904;2023-02-18T17:04:14;13.30;82.00
59572;DHT22;59406;45.602;11.904;2023-02-18T17:06:40;13.30;82.10
59572;DHT22;59406;45.602;11.904;2023-02-18T17:09:18;13.30;82.00
59572;DHT22;59406;45.602;11.904;2023-02-18T17:11:47;13.20;82.40
59572;DHT22;59406;45.602;11.904;2023-02-18T17:14:18;13.00;82.30
59572;DHT22;59406;45.602;11.904;2023-02-18T17:16:48;13.10;82.40
59572;DHT22;59406;45.602;11.904;2023-02-18T17:19:15;13.10;82.20
59572;DHT22;59406;45.602;11.904;2023-02-18T17:21:41;13.20;82.20
59572;DHT22;59406;45.602;11.904;2023-02-18T17:24:12;13.20;82.20
59572;DHT22;59406;45.602;11.904;2023-02-18T17:26:39;13.20;82.40
59572;DHT22;59406;45.602;11.904;2023-02-18T17:29:05;13.20;82.30
59572;DHT22;59406;45.602;11.904;2023-02-18T17:31:50;13.10;82.50
59572;DHT22;59406;45.602;11.904;2023-02-18T17:34:24;13.10;82.80
59572;DHT22;59406;45.602;11.904;2023-02-18T17:36:50;13.00;82.70
59572;DHT22;59406;45.602;11.904;2023-02-18T17:39:17;13.00;82.60
59572;DHT22;59406;45.602;11.904;2023-02-18T17:41:43;13.00;82.60
59572;DHT22;59406;45.602;11.904;2023-02-18T17:44:20;12.90;82.80
59572;DHT22;59406;45.602;11.904;2023-02-18T17:46:47;12.80;83.20
59572;DHT22;59406;45.602;11.904;2023-02-18T17:49:15;12.70;83.20
59572;DHT22;59406;45.602;11.904;2023-02-18T17:51:41;12.70;83.30
59572;DHT22;59406;45.602;11.904;2023-02-18T17:54:16;12.70;83.30
59572;DHT22;59406;45.602;11.904;2023-02-18T17:56:43;12.70;83.40
59572;DHT22;59406;45.602;11.904;2023-02-18T17:59:09;12.60;84.60
59572;DHT22;59406;45.602;11.904;2023-02-18T18:01:35;12.60;84.60
59572;DHT22;59406;45.602;11.904;2023-02-18T18:04:01;12.50;84.90
59572;DHT22;59406;45.602;11.904;2023-02-18T18:06:27;12.50;85.00
59572;DHT22;59406;45.602;11.904;2023-02-18T18:08:53;12.50;84.90
59572;DHT22;59406;45.602;11.904;2023-02-18T18:11:22;12.40;84.90
59572;DHT22;59406;45.602;11.904;2023-02-18T18:13:49;12.30;85.20
59572;DHT22;59406;45.602;11.904;2023-02-18T18:16:16;12.20;85.20
59572;DHT22;59406;45.602;11.904;2023-02-18T18:18:43;12.40;85.10
59572;DHT22;59406;45.602;11.904;2023-02-18T18:21:33;12.50;85.20
59572;DHT22;59406;45.602;11.904;2023-02-18T18:23:59;12.50;85.10
59572;DHT22;59406;45.602;11.904;2023-02-18T18:26:25;12.60;84.80
59572;DHT22;59406;45.602;11.904;2023-02-18T18:28:51;12.60;84.40
59572;DHT22;59406;45.602;11.904;2023-02-18T18:31:18;12.60;84.30
59572;DHT22;59406;45.602;11.904;2023-02-18T18:33:44;12.80;83.00
59572;DHT22;59406;45.602;11.904;2023-02-18T18:36:16;12.70;83.10
59572;DHT22;59406;45.602;11.904;2023-02-18T18:38:42;12.80;83.00
59572;DHT22;59406;45.602;11.904;2023-02-18T18:41:19;12.70;83.00